PWSweather.com
Personal Weather Stations
Station Observations
VPOKROGLO
Kal Nad Kanalom, PrimorskaSI

Kal Nad KanalomPrimorskaSI

Lat: 46.072, Lon: 13.734

Elevation: 2526

Station Type: WS-2355

http://www.okroglovreme.com

High Low Average
Temperature 43.3°F6.3°F 35.8°F2.1°F 39.1°F3.9°F
Dew Point 38.6°F3.7°F 32.0°F0.0°F 35.0°F1.7°F
Winds 12.1 mph SSE19.5 mph SSE Calm Calm 4.2 mph 6.8 mph
Wind Gusts 18.6 mph29.9 mph -- 5.7 mph9.2 mph
Humidity 89% 69% 85%
Pressure 30.44 in1030.80 in 30.08 in1018.60 in -
Precipitation 2.78 in70.60 in - -
Hour Temp Dew Point Humidity Winds Wind Gusts Pressure Precip Precip Rate Daily Precip Total
12:00 AM 36.1°F2.3°C 32.6°F0.3°C 87% 2.8 mph SSW4.5 kmh SSW 5.1 mph8.2 kmh 30.32 in1026.8 mb 0.00 in0.0 mm 0.00 in0.0 mm 0.00 in0.0 mm
12:15 AM 36.1°F2.3°C 32.6°F0.3°C 87% 2.5 mph SW4.0 kmh SW 5.4 mph8.7 kmh 30.32 in1026.8 mb 0.00 in0.0 mm 0.00 in0.0 mm 0.00 in0.0 mm
12:30 AM 36.1°F2.3°C 32.6°F0.3°C 87% 2.9 mph SW4.7 kmh SW 4.0 mph6.4 kmh 30.31 in1026.4 mb 0.00 in0.0 mm 0.00 in0.0 mm 0.00 in0.0 mm
12:45 AM 36.3°F2.4°C 32.8°F0.4°C 87% 2.8 mph SSW4.5 kmh SSW 4.3 mph6.9 kmh 30.31 in1026.4 mb 0.00 in0.0 mm 0.00 in0.0 mm 0.00 in0.0 mm
01:00 AM 36.3°F2.4°C 32.8°F0.4°C 87% 3.4 mph SSW5.5 kmh SSW 5.4 mph8.7 kmh 30.30 in1026.1 mb 0.00 in0.0 mm 0.00 in0.0 mm 0.00 in0.0 mm
01:15 AM 36.3°F2.4°C 33.1°F0.6°C 88% 3.1 mph SSW5.0 kmh SSW 4.9 mph7.9 kmh 30.30 in1026.1 mb 0.00 in0.0 mm 0.00 in0.0 mm 0.00 in0.0 mm
01:30 AM 36.5°F2.5°C 33.3°F0.7°C 88% 3.8 mph SSW6.1 kmh SSW 7.4 mph11.9 kmh 30.30 in1026.1 mb 0.00 in0.0 mm 0.00 in0.0 mm 0.00 in0.0 mm
01:45 AM 36.5°F2.5°C 33.3°F0.7°C 88% 3.6 mph SSW5.8 kmh SSW 6.3 mph10.1 kmh 30.29 in1025.7 mb 0.00 in0.0 mm 0.00 in0.0 mm 0.00 in0.0 mm
02:00 AM 36.5°F2.5°C 33.3°F0.7°C 88% 3.3 mph SSW5.3 kmh SSW 4.9 mph7.9 kmh 30.29 in1025.7 mb 0.00 in0.0 mm 0.00 in0.0 mm 0.00 in0.0 mm
02:15 AM 36.7°F2.6°C 33.5°F0.8°C 88% 4.0 mph SSW6.4 kmh SSW 6.0 mph9.7 kmh 30.28 in1025.4 mb 0.00 in0.0 mm 0.00 in0.0 mm 0.00 in0.0 mm
02:30 AM 36.5°F2.5°C 33.3°F0.7°C 88% 3.9 mph SSW6.3 kmh SSW 7.8 mph12.6 kmh 30.28 in1025.4 mb 0.00 in0.0 mm 0.00 in0.0 mm 0.00 in0.0 mm
02:45 AM 36.5°F2.5°C 33.3°F0.7°C 88% 3.2 mph SW5.1 kmh SW 5.6 mph9.0 kmh 30.28 in1025.4 mb 0.00 in0.0 mm 0.00 in0.0 mm 0.00 in0.0 mm
03:00 AM 36.5°F2.5°C 33.3°F0.7°C 88% 2.7 mph SW4.3 kmh SW 3.8 mph6.1 kmh 30.28 in1025.4 mb 0.00 in0.0 mm 0.00 in0.0 mm 0.00 in0.0 mm
03:15 AM 36.5°F2.5°C 33.3°F0.7°C 88% 3.5 mph SSW5.6 kmh SSW 5.1 mph8.2 kmh 30.27 in1025.1 mb 0.00 in0.0 mm 0.00 in0.0 mm 0.00 in0.0 mm
03:30 AM 36.5°F2.5°C 33.3°F0.7°C 88% 3.6 mph S5.8 kmh S 5.8 mph9.3 kmh 30.27 in1025.1 mb 0.00 in0.0 mm 0.00 in0.0 mm 0.00 in0.0 mm
03:45 AM 36.5°F2.5°C 33.3°F0.7°C 88% 4.4 mph S7.1 kmh S 6.7 mph10.8 kmh 30.26 in1024.7 mb 0.00 in0.0 mm 0.00 in0.0 mm 0.00 in0.0 mm
04:00 AM 36.3°F2.4°C 33.1°F0.6°C 88% 3.6 mph S5.8 kmh S 5.4 mph8.7 kmh 30.26 in1024.7 mb 0.00 in0.0 mm 0.00 in0.0 mm 0.00 in0.0 mm
04:15 AM 36.3°F2.4°C 33.1°F0.6°C 88% 2.6 mph S4.2 kmh S 4.0 mph6.4 kmh 30.25 in1024.4 mb 0.00 in0.0 mm 0.00 in0.0 mm 0.00 in0.0 mm
04:30 AM 36.3°F2.4°C 33.4°F0.8°C 89% 0.8 mph SSW1.3 kmh SSW 2.2 mph3.5 kmh 30.25 in1024.4 mb 0.00 in0.0 mm 0.00 in0.0 mm 0.00 in0.0 mm
04:45 AM 36.3°F2.4°C 33.4°F0.8°C 89% 0.3 mph SSW0.5 kmh SSW 2.2 mph3.5 kmh 30.25 in1024.4 mb 0.00 in0.0 mm 0.00 in0.0 mm 0.00 in0.0 mm
05:00 AM 36.3°F2.4°C 33.4°F0.8°C 89% 1.5 mph SSW2.4 kmh SSW 3.1 mph5.0 kmh 30.25 in1024.4 mb 0.00 in0.0 mm 0.00 in0.0 mm 0.00 in0.0 mm
05:15 AM 36.5°F2.5°C 33.3°F0.7°C 88% 0.5 mph SSW0.8 kmh SSW 2.2 mph3.5 kmh 30.25 in1024.4 mb 0.00 in0.0 mm 0.00 in0.0 mm 0.00 in0.0 mm
05:30 AM 36.5°F2.5°C 33.3°F0.7°C 88% 1.1 mph SSW1.8 kmh SSW 5.1 mph8.2 kmh 30.24 in1024.0 mb 0.00 in0.0 mm 0.00 in0.0 mm 0.00 in0.0 mm
05:45 AM 36.7°F2.6°C 33.5°F0.8°C 88% 1.2 mph S1.9 kmh S 2.9 mph4.7 kmh 30.23 in1023.7 mb 0.00 in0.0 mm 0.00 in0.0 mm 0.00 in0.0 mm
06:00 AM 36.7°F2.6°C 33.7°F0.9°C 88% 1.4 mph SSW2.3 kmh SSW 3.1 mph5.0 kmh 30.22 in1023.4 mb 0.00 in0.0 mm 0.00 in0.0 mm 0.00 in0.0 mm
06:15 AM 37.0°F2.8°C 34.1°F1.2°C 89% 2.4 mph S3.9 kmh S 4.3 mph6.9 kmh 30.22 in1023.4 mb 0.00 in0.0 mm 0.00 in0.0 mm 0.00 in0.0 mm
06:30 AM 37.2°F2.9°C 34.0°F1.1°C 88% 1.0 mph SSW1.6 kmh SSW 2.5 mph4.0 kmh 30.21 in1023.0 mb 0.00 in0.0 mm 0.00 in0.0 mm 0.00 in0.0 mm
06:45 AM 37.2°F2.9°C 34.0°F1.1°C 88% 0.9 mph SW1.4 kmh SW 3.4 mph5.5 kmh 30.21 in1023.0 mb 0.00 in0.0 mm 0.00 in0.0 mm 0.00 in0.0 mm
07:00 AM 37.4°F3.0°C 34.2°F1.2°C 88% 1.0 mph S1.6 kmh S 3.1 mph5.0 kmh 30.20 in1022.7 mb 0.00 in0.0 mm 0.00 in0.0 mm 0.00 in0.0 mm
07:15 AM 38.1°F3.4°C 34.9°F1.6°C 88% 4.3 mph SSW6.9 kmh SSW 12.1 mph19.5 kmh 30.20 in1022.7 mb 0.00 in0.0 mm 0.00 in0.0 mm 0.00 in0.0 mm
07:30 AM 38.8°F3.8°C 35.9°F2.2°C 89% 7.2 mph SSW11.6 kmh SSW 11.2 mph18.0 kmh 30.20 in1022.7 mb 0.00 in0.0 mm 0.00 in0.0 mm 0.00 in0.0 mm
07:45 AM 39.0°F3.9°C 36.1°F2.3°C 89% 6.5 mph S10.5 kmh S 11.9 mph19.2 kmh 30.20 in1022.7 mb 0.00 in0.0 mm 0.00 in0.0 mm 0.00 in0.0 mm
08:00 AM 39.0°F3.9°C 36.1°F2.3°C 89% 5.4 mph S8.7 kmh S 10.3 mph16.6 kmh 30.20 in1022.7 mb 0.00 in0.0 mm 0.00 in0.0 mm 0.00 in0.0 mm
08:15 AM 39.4°F4.1°C 36.4°F2.4°C 89% 8.4 mph S13.5 kmh S 14.8 mph23.8 kmh 30.20 in1022.7 mb 0.00 in0.0 mm 0.00 in0.0 mm 0.00 in0.0 mm
08:30 AM 39.6°F4.2°C 36.6°F2.6°C 89% 7.4 mph S11.9 kmh S 15.4 mph24.8 kmh 30.20 in1022.7 mb 0.00 in0.0 mm 0.00 in0.0 mm 0.00 in0.0 mm
08:45 AM 39.6°F4.2°C 36.6°F2.6°C 89% 8.0 mph S12.9 kmh S 17.4 mph28.0 kmh 30.20 in1022.7 mb 0.00 in0.0 mm 0.00 in0.0 mm 0.00 in0.0 mm
09:00 AM 39.7°F4.3°C 36.5°F2.5°C 88% 5.9 mph S9.5 kmh S 11.9 mph19.2 kmh 30.19 in1022.4 mb 0.00 in0.0 mm 0.00 in0.0 mm 0.00 in0.0 mm
09:15 AM 39.7°F4.3°C 36.5°F2.5°C 88% 6.4 mph S10.3 kmh S 11.9 mph19.2 kmh 30.18 in1022.0 mb 0.04 in1.0 mm 0.16 in4.1 mm 0.04 in1.0 mm
09:30 AM 39.7°F4.3°C 36.5°F2.5°C 88% 7.2 mph S11.6 kmh S 15.0 mph24.1 kmh 30.18 in1022.0 mb 0.04 in1.0 mm 0.00 in0.0 mm 0.04 in1.0 mm
09:45 AM 39.9°F4.4°C 36.7°F2.6°C 88% 9.4 mph S15.1 kmh S 15.9 mph25.6 kmh 30.18 in1022.0 mb 0.04 in1.0 mm 0.00 in0.0 mm 0.04 in1.0 mm
10:00 AM 39.9°F4.4°C 36.7°F2.6°C 88% 7.8 mph S12.6 kmh S 13.9 mph22.4 kmh 30.18 in1022.0 mb 0.04 in1.0 mm 0.00 in0.0 mm 0.04 in1.0 mm
10:15 AM 39.9°F4.4°C 36.4°F2.4°C 87% 9.4 mph S15.1 kmh S 15.7 mph25.3 kmh 30.18 in1022.0 mb 0.00 in0.0 mm 0.00 in0.0 mm 0.04 in1.0 mm
10:30 AM 39.9°F4.4°C 36.4°F2.4°C 87% 9.4 mph S15.1 kmh S 16.8 mph27.0 kmh 30.17 in1021.7 mb 0.00 in0.0 mm 0.00 in0.0 mm 0.04 in1.0 mm
10:45 AM 39.9°F4.4°C 36.4°F2.4°C 87% 6.9 mph S11.1 kmh S 12.3 mph19.8 kmh 30.17 in1021.7 mb 0.00 in0.0 mm 0.00 in0.0 mm 0.04 in1.0 mm
11:00 AM 39.9°F4.4°C 36.4°F2.4°C 87% 7.4 mph S11.9 kmh S 11.4 mph18.3 kmh 30.16 in1021.3 mb 0.00 in0.0 mm 0.00 in0.0 mm 0.04 in1.0 mm
11:15 AM 39.9°F4.4°C 36.1°F2.3°C 86% 7.6 mph S12.2 kmh S 17.2 mph27.7 kmh 30.16 in1021.3 mb 0.02 in0.5 mm 0.08 in2.0 mm 0.06 in1.5 mm
11:30 AM 39.7°F4.3°C 35.9°F2.2°C 86% 5.1 mph S8.2 kmh S 10.3 mph16.6 kmh 30.16 in1021.3 mb 0.02 in0.5 mm 0.00 in0.0 mm 0.06 in1.5 mm
11:45 AM 39.6°F4.2°C 35.7°F2.1°C 86% 5.4 mph S8.7 kmh S 10.5 mph16.9 kmh 30.15 in1021.0 mb 0.02 in0.5 mm 0.00 in0.0 mm 0.06 in1.5 mm
12:00 PM 39.7°F4.3°C 36.2°F2.3°C 87% 5.9 mph S9.5 kmh S 9.4 mph15.1 kmh 30.14 in1020.7 mb 0.02 in0.5 mm 0.00 in0.0 mm 0.06 in1.5 mm
12:15 PM 39.7°F4.3°C 36.2°F2.3°C 87% 5.3 mph S8.5 kmh S 15.4 mph24.8 kmh 30.14 in1020.7 mb 0.02 in0.5 mm 0.00 in0.0 mm 0.08 in2.0 mm
12:30 PM 39.9°F4.4°C 36.4°F2.4°C 87% 5.5 mph SSE8.9 kmh SSE 8.7 mph14.0 kmh 30.13 in1020.3 mb 0.02 in0.5 mm 0.00 in0.0 mm 0.08 in2.0 mm
12:45 PM 39.9°F4.4°C 36.4°F2.4°C 87% 4.5 mph S7.2 kmh S 7.8 mph12.6 kmh 30.13 in1020.3 mb 0.02 in0.5 mm 0.00 in0.0 mm 0.08 in2.0 mm
01:00 PM 40.1°F4.5°C 36.5°F2.5°C 87% 3.3 mph S5.3 kmh S 6.5 mph10.5 kmh 30.12 in1020.0 mb 0.04 in1.0 mm 0.03 in0.8 mm 0.10 in2.5 mm
01:15 PM 40.1°F4.5°C 36.5°F2.5°C 87% 2.1 mph S3.4 kmh S 6.3 mph10.1 kmh 30.12 in1020.0 mb 0.02 in0.5 mm 0.00 in0.0 mm 0.10 in2.5 mm
01:20 PM 40.1°F4.5°C 36.5°F2.5°C 87% 2.2 mph SSW3.5 kmh SSW 2.9 mph4.7 kmh 30.11 in1019.6 mb 0.02 in0.5 mm 0.00 in0.0 mm 0.10 in2.5 mm
01:30 PM 40.1°F4.5°C 36.5°F2.5°C 87% 2.2 mph S3.5 kmh S 2.2 mph3.5 kmh 30.11 in1019.6 mb 0.02 in0.5 mm 0.00 in0.0 mm 0.10 in2.5 mm
02:00 PM 40.3°F4.6°C 36.7°F2.6°C 87% 3.1 mph S5.0 kmh S 8.5 mph13.7 kmh 30.10 in1019.3 mb 0.02 in0.5 mm 0.00 in0.0 mm 0.12 in3.0 mm
02:15 PM 40.5°F4.7°C 36.9°F2.7°C 87% 5.8 mph S9.3 kmh S 12.1 mph19.5 kmh 30.10 in1019.3 mb 0.02 in0.5 mm 0.00 in0.0 mm 0.12 in3.0 mm
02:30 PM 40.6°F4.8°C 37.1°F2.8°C 87% 5.1 mph S8.2 kmh S 11.0 mph17.7 kmh 30.09 in1019.0 mb 0.02 in0.5 mm 0.00 in0.0 mm 0.12 in3.0 mm
02:45 PM 40.6°F4.8°C 37.1°F2.8°C 87% 4.7 mph S7.6 kmh S 9.2 mph14.8 kmh 30.09 in1019.0 mb 0.04 in1.0 mm 0.08 in2.0 mm 0.14 in3.6 mm
03:00 PM 40.8°F4.9°C 37.3°F2.9°C 87% 4.7 mph S7.6 kmh S 8.1 mph13.0 kmh 30.09 in1019.0 mb 0.02 in0.5 mm 0.00 in0.0 mm 0.14 in3.6 mm
03:15 PM 41.2°F5.1°C 37.6°F3.1°C 87% 5.3 mph S8.5 kmh S 13.0 mph20.9 kmh 30.09 in1019.0 mb 0.04 in1.0 mm 0.08 in2.0 mm 0.16 in4.1 mm
03:30 PM 41.2°F5.1°C 37.6°F3.1°C 87% 5.7 mph S9.2 kmh S 10.7 mph17.2 kmh 30.09 in1019.0 mb 0.04 in1.0 mm 0.00 in0.0 mm 0.16 in4.1 mm
03:45 PM 41.4°F5.2°C 37.8°F3.2°C 87% 5.9 mph S9.5 kmh S 10.1 mph16.3 kmh 30.09 in1019.0 mb 0.02 in0.5 mm 0.00 in0.0 mm 0.16 in4.1 mm
04:00 PM 41.4°F5.2°C 37.8°F3.2°C 87% 5.8 mph S9.3 kmh S 9.8 mph15.8 kmh 30.09 in1019.0 mb 0.02 in0.5 mm 0.00 in0.0 mm 0.16 in4.1 mm
04:15 PM 41.4°F5.2°C 37.8°F3.2°C 87% 7.1 mph S11.4 kmh S 12.5 mph20.1 kmh 30.08 in1018.6 mb 0.00 in0.0 mm 0.00 in0.0 mm 0.16 in4.1 mm
04:30 PM 41.4°F5.2°C 37.8°F3.2°C 87% 6.8 mph SSE10.9 kmh SSE 18.6 mph29.9 kmh 30.08 in1018.6 mb 0.02 in0.5 mm 0.08 in2.0 mm 0.18 in4.6 mm
04:45 PM 41.4°F5.2°C 37.8°F3.2°C 87% 5.1 mph S8.2 kmh S 10.3 mph16.6 kmh 30.08 in1018.6 mb 0.02 in0.5 mm 0.00 in0.0 mm 0.18 in4.6 mm
05:00 PM 41.5°F5.3°C 38.0°F3.3°C 87% 7.3 mph S11.7 kmh S 11.4 mph18.3 kmh 30.08 in1018.6 mb 0.04 in1.0 mm 0.03 in0.8 mm 0.20 in5.1 mm
05:15 PM 41.5°F5.3°C 38.0°F3.3°C 87% 7.4 mph S11.9 kmh S 13.0 mph20.9 kmh 30.08 in1018.6 mb 0.02 in0.5 mm 0.00 in0.0 mm 0.20 in5.1 mm
05:30 PM 41.5°F5.3°C 38.0°F3.3°C 87% 6.7 mph S10.8 kmh S 12.1 mph19.5 kmh 30.08 in1018.6 mb 0.04 in1.0 mm 0.08 in2.0 mm 0.22 in5.6 mm
05:35 PM 41.5°F5.3°C 38.0°F3.3°C 87% 6.5 mph S10.5 kmh S 6.5 mph10.5 kmh 30.08 in1018.6 mb 0.04 in1.0 mm 0.00 in0.0 mm 0.22 in5.6 mm
05:41 PM 41.4°F5.2°C 37.8°F3.2°C 87% 12.1 mph SSE19.5 kmh SSE 12.1 mph19.5 kmh 30.09 in1019.0 mb 0.00 in0.0 mm 0.00 in0.0 mm 0.22 in5.6 mm
05:42 PM 41.7°F5.4°C 33.0°F0.6°C 71% 1.1 mph WNW1.8 kmh WNW 1.1 mph1.8 kmh 30.40 in1029.5 mb 0.00 in0.0 mm 0.00 in0.0 mm 0.18 in4.6 mm
05:43 PM 36.3°F2.4°C 32.8°F0.4°C 87% 3.1 mph SSW5.0 kmh SSW 3.1 mph5.0 kmh 30.31 in1026.4 mb 0.00 in0.0 mm 0.00 in0.0 mm 0.18 in4.6 mm
05:44 PM 39.9°F4.4°C 36.4°F2.4°C 87% 8.3 mph S13.4 kmh S 8.3 mph13.4 kmh 30.17 in1021.7 mb 0.00 in0.0 mm 0.00 in0.0 mm 0.04 in1.0 mm
05:45 PM 41.4°F5.2°C 37.5°F3.1°C 86% 7.7 mph SSE12.4 kmh SSE 11.9 mph19.2 kmh 30.09 in1019.0 mb 0.04 in1.0 mm 2.40 in61.0 mm 0.22 in5.6 mm
05:56 PM 41.4°F5.2°C 37.5°F3.1°C 86% 10.1 mph SSE16.3 kmh SSE 12.7 mph20.4 kmh 30.09 in1019.0 mb 0.02 in0.5 mm 0.00 in0.0 mm 0.22 in5.6 mm
06:00 PM 41.2°F5.1°C 37.3°F2.9°C 86% 8.3 mph SSE13.4 kmh SSE 12.7 mph20.4 kmh 30.09 in1019.0 mb 0.02 in0.5 mm 0.00 in0.0 mm 0.22 in5.6 mm
06:15 PM 41.4°F5.2°C 37.5°F3.1°C 86% 6.4 mph S10.3 kmh S 10.3 mph16.6 kmh 30.09 in1019.0 mb 0.04 in1.0 mm 0.08 in2.0 mm 0.24 in6.1 mm
06:30 PM 41.4°F5.2°C 37.5°F3.1°C 86% 6.3 mph S10.1 kmh S 13.9 mph22.4 kmh 30.09 in1019.0 mb 0.02 in0.5 mm 0.00 in0.0 mm 0.24 in6.1 mm
06:45 PM 41.4°F5.2°C 37.5°F3.1°C 86% 3.9 mph S6.3 kmh S 6.9 mph11.1 kmh 30.09 in1019.0 mb 0.04 in1.0 mm 0.08 in2.0 mm 0.27 in6.9 mm
07:00 PM 41.4°F5.2°C 37.5°F3.1°C 86% 4.6 mph S7.4 kmh S 9.2 mph14.8 kmh 30.10 in1019.3 mb 0.06 in1.5 mm 0.03 in0.8 mm 0.29 in7.4 mm
07:15 PM 41.2°F5.1°C 37.3°F2.9°C 86% 3.2 mph SSE5.1 kmh SSE 6.0 mph9.7 kmh 30.10 in1019.3 mb 0.04 in1.0 mm 0.00 in0.0 mm 0.29 in7.4 mm
07:30 PM 41.2°F5.1°C 37.3°F2.9°C 86% 3.0 mph S4.8 kmh S 6.7 mph10.8 kmh 30.10 in1019.3 mb 0.04 in1.0 mm 0.00 in0.0 mm 0.29 in7.4 mm
07:45 PM 41.2°F5.1°C 37.6°F3.1°C 87% 1.3 mph S2.1 kmh S 2.9 mph4.7 kmh 30.10 in1019.3 mb 0.02 in0.5 mm 0.00 in0.0 mm 0.29 in7.4 mm
08:00 PM 41.2°F5.1°C 37.6°F3.1°C 87% 3.7 mph S6.0 kmh S 6.7 mph10.8 kmh 30.09 in1019.0 mb 0.00 in0.0 mm 0.00 in0.0 mm 0.29 in7.4 mm
08:15 PM 41.4°F5.2°C 37.8°F3.2°C 87% 3.6 mph S5.8 kmh S 11.2 mph18.0 kmh 30.09 in1019.0 mb 0.02 in0.5 mm 0.08 in2.0 mm 0.31 in7.9 mm
08:30 PM 41.5°F5.3°C 38.0°F3.3°C 87% 3.9 mph S6.3 kmh S 8.3 mph13.4 kmh 30.09 in1019.0 mb 0.02 in0.5 mm 0.00 in0.0 mm 0.31 in7.9 mm
08:45 PM 41.2°F5.1°C 37.6°F3.1°C 87% 2.1 mph S3.4 kmh S 5.6 mph9.0 kmh 30.08 in1018.6 mb 0.02 in0.5 mm 0.00 in0.0 mm 0.31 in7.9 mm
09:00 PM 41.2°F5.1°C 37.9°F3.3°C 88% 3.5 mph SSW5.6 kmh SSW 6.7 mph10.8 kmh 30.09 in1019.0 mb 0.04 in1.0 mm 0.03 in0.8 mm 0.33 in8.4 mm
09:15 PM 41.5°F5.3°C 38.3°F3.5°C 88% 4.2 mph S6.8 kmh S 9.8 mph15.8 kmh 30.08 in1018.6 mb 0.02 in0.5 mm 0.00 in0.0 mm 0.33 in8.4 mm
09:30 PM 41.7°F5.4°C 38.4°F3.6°C 88% 6.3 mph S10.1 kmh S 9.8 mph15.8 kmh 30.09 in1019.0 mb 0.02 in0.5 mm 0.00 in0.0 mm 0.33 in8.4 mm
09:45 PM 41.9°F5.5°C 38.6°F3.7°C 88% 6.3 mph S10.1 kmh S 13.0 mph20.9 kmh 30.09 in1019.0 mb 0.04 in1.0 mm 0.08 in2.0 mm 0.35 in8.9 mm
10:00 PM 41.9°F5.5°C 38.6°F3.7°C 88% 7.3 mph S11.7 kmh S 12.8 mph20.6 kmh 30.09 in1019.0 mb 0.04 in1.0 mm 0.00 in0.0 mm 0.37 in9.4 mm
10:15 PM 41.9°F5.5°C 38.6°F3.7°C 88% 6.1 mph S9.8 kmh S 9.8 mph15.8 kmh 30.09 in1019.0 mb 0.06 in1.5 mm 0.08 in2.0 mm 0.39 in9.9 mm
10:30 PM 41.9°F5.5°C 38.3°F3.5°C 87% 6.8 mph S10.9 kmh S 10.7 mph17.2 kmh 30.09 in1019.0 mb 0.06 in1.5 mm 0.00 in0.0 mm 0.39 in9.9 mm
10:45 PM 41.9°F5.5°C 38.3°F3.5°C 87% 6.3 mph SSE10.1 kmh SSE 10.3 mph16.6 kmh 30.09 in1019.0 mb 0.06 in1.5 mm 0.00 in0.0 mm 0.41 in10.4 mm
11:00 PM 41.9°F5.5°C 38.3°F3.5°C 87% 8.0 mph S12.9 kmh S 16.8 mph27.0 kmh 30.08 in1018.6 mb 0.04 in1.0 mm 0.00 in0.0 mm 0.41 in10.4 mm
11:15 PM 42.1°F5.6°C 38.5°F3.6°C 87% 8.1 mph S13.0 kmh S 16.8 mph27.0 kmh 30.09 in1019.0 mb 0.06 in1.5 mm 0.08 in2.0 mm 0.45 in11.4 mm
11:30 PM 41.9°F5.5°C 38.3°F3.5°C 87% 8.1 mph S13.0 kmh S 15.0 mph24.1 kmh 30.08 in1018.6 mb 0.08 in2.0 mm 0.08 in2.0 mm 0.47 in11.9 mm
11:45 PM 42.1°F5.6°C 38.5°F3.6°C 87% 7.6 mph S12.2 kmh S 13.0 mph20.9 kmh 30.09 in1019.0 mb 0.08 in2.0 mm 0.00 in0.0 mm 0.49 in12.4 mm